Terminal Aerodrome Forecast
Issued by NWS Nashville, TN

Current Version | Previous Version | Text Only | Print | Product List | Glossary On
Versions: 1 2 3 4 5 6 7 8 9 10 11 12 13 14 15 16 17 18 19 20 21 22 23 24 25 26 27 28 29
000
FTUS44 KOHX 181720
TAFBNA
TAF
KBNA 181720Z 1818/1918 15010KT P6SM SCT250
     FM182200 17010KT P6SM BKN140
     FM190300 18010KT P6SM VCSH SCT015 BKN035
      TEMPO 1905/1909 4SM -SHRA BR BKN012
     FM190900 18011KT 5SM BR BKN015
     FM191300 18014KT P6SM SCT020 BKN120=

USA.gov is the U.S. government's official web portal to all federal, state and local government web resources and services.